EIPSM EIKY-EINN

Flight info

Callsign EIPSM
Flight time 0h 19m
Altitude 2500
Route TRALEE
Aircraft DA62/L-SDFGRY/C

Departure

Time 2026-04-22 16:04
Airport Kerry Airport (EIKY)

Arrival

Time 2026-04-22 16:24
Airport Shannon Airport (EINN)
Time Latitude Longitude Altitude Speed Heading
2026-04-22 15:55 52.18287 -9.53034 84 ft 0 kts 151°
2026-04-22 16:01 52.18286 -9.53032 84 ft 1 kts 149°
2026-04-22 16:01 52.18269 -9.53017 84 ft 3 kts 149°
2026-04-22 16:01 52.18238 -9.52994 85 ft 5 kts 182°
2026-04-22 16:01 52.18197 -9.53067 85 ft 10 kts 239°
2026-04-22 16:02 52.18137 -9.53228 82 ft 18 kts 237°
2026-04-22 16:02 52.18055 -9.53436 81 ft 19 kts 234°
2026-04-22 16:02 52.17983 -9.53616 79 ft 10 kts 189°
2026-04-22 16:02 52.17902 -9.53576 80 ft 11 kts 163°
2026-04-22 16:03 52.17855 -9.53490 80 ft 10 kts 73°
2026-04-22 16:03 52.17862 -9.53458 80 ft 0 kts 71°
2026-04-22 16:03 52.17870 -9.53417 81 ft 12 kts 72°
2026-04-22 16:03 52.17953 -9.53011 86 ft 57 kts 72°
2026-04-22 16:04 52.18138 -9.52204 206 ft 67 kts 78°
2026-04-22 16:04 52.18294 -9.51412 463 ft 61 kts 83°
2026-04-22 16:04 52.18458 -9.50654 660 ft 72 kts 76°
2026-04-22 16:04 52.19048 -9.50356 845 ft 108 kts
2026-04-22 16:05 52.19630 -9.50629 979 ft 121 kts 347°
2026-04-22 16:05 52.20414 -9.52326 1258 ft 138 kts 293°
2026-04-22 16:05 52.20841 -9.53942 1491 ft 143 kts 295°
2026-04-22 16:05 52.21276 -9.55640 1691 ft 150 kts 292°
2026-04-22 16:06 52.21856 -9.57333 1829 ft 160 kts 310°
2026-04-22 16:06 52.22608 -9.58964 1892 ft 169 kts 308°
2026-04-22 16:06 52.23401 -9.60610 1936 ft 174 kts 316°
2026-04-22 16:06 52.24390 -9.62035 1987 ft 174 kts 329°
2026-04-22 16:07 52.25472 -9.63376 2105 ft 170 kts 335°
2026-04-22 16:07 52.26660 -9.64341 2062 ft 175 kts 349°
2026-04-22 16:07 52.27913 -9.64872 2174 ft 159 kts
2026-04-22 16:07 52.29167 -9.65137 2115 ft 168 kts
2026-04-22 16:08 52.30470 -9.65166 2128 ft 160 kts 17°
2026-04-22 16:08 52.31636 -9.64890 2275 ft 144 kts 32°
2026-04-22 16:08 52.32671 -9.64092 2218 ft 136 kts 46°
2026-04-22 16:08 52.33572 -9.63152 2225 ft 136 kts 52°
2026-04-22 16:09 52.34451 -9.62126 2285 ft 133 kts 49°
2026-04-22 16:09 52.35378 -9.61326 2231 ft 134 kts 53°
2026-04-22 16:09 52.35932 -9.59928 2166 ft 121 kts 76°
2026-04-22 16:09 52.36386 -9.58563 2199 ft 124 kts 71°
2026-04-22 16:10 52.36939 -9.57151 2087 ft 131 kts 71°
2026-04-22 16:10 52.37592 -9.55862 2189 ft 128 kts 59°
2026-04-22 16:10 52.38097 -9.55122 2072 ft 138 kts 55°
2026-04-22 16:10 52.39262 -9.53620 2049 ft 141 kts 49°
2026-04-22 16:11 52.40202 -9.52697 2063 ft 143 kts 42°
2026-04-22 16:11 52.41269 -9.51954 1940 ft 153 kts 36°
2026-04-22 16:11 52.42376 -9.51268 1965 ft 150 kts 34°
2026-04-22 16:11 52.43502 -9.50666 1923 ft 154 kts 29°
2026-04-22 16:12 52.44715 -9.50281 1893 ft 158 kts 24°
2026-04-22 16:12 52.45903 -9.49771 1834 ft 155 kts 31°
2026-04-22 16:12 52.47073 -9.49260 1800 ft 158 kts 27°
2026-04-22 16:12 52.48260 -9.48841 1777 ft 159 kts 25°
2026-04-22 16:13 52.49444 -9.48412 1853 ft 152 kts 27°
2026-04-22 16:13 52.50619 -9.48002 1772 ft 159 kts 25°
2026-04-22 16:13 52.51834 -9.47597 1772 ft 157 kts 27°
2026-04-22 16:13 52.53008 -9.47132 1793 ft 153 kts 29°
2026-04-22 16:14 52.54166 -9.46627 1748 ft 155 kts 29°
2026-04-22 16:14 52.55325 -9.46116 1711 ft 154 kts 29°
2026-04-22 16:14 52.56347 -9.45300 1612 ft 143 kts 50°
2026-04-22 16:14 52.57084 -9.44061 1634 ft 127 kts 62°
2026-04-22 16:15 52.57594 -9.42730 1547 ft 121 kts 78°
2026-04-22 16:15 52.57759 -9.41252 1518 ft 113 kts 95°
2026-04-22 16:15 52.57696 -9.39851 1480 ft 112 kts 100°
2026-04-22 16:15 52.57597 -9.38343 1277 ft 122 kts 96°
2026-04-22 16:16 52.57581 -9.36815 1302 ft 118 kts 91°
2026-04-22 16:16 52.57767 -9.35279 1199 ft 124 kts 81°
2026-04-22 16:16 52.58024 -9.33806 1237 ft 118 kts 84°
2026-04-22 16:16 52.58250 -9.32322 1227 ft 116 kts 84°
2026-04-22 16:17 52.58335 -9.30866 1329 ft 106 kts 90°
2026-04-22 16:17 52.58493 -9.29461 1261 ft 115 kts 83°
2026-04-22 16:17 52.58790 -9.27998 1239 ft 122 kts 77°
2026-04-22 16:17 52.59184 -9.26547 1269 ft 123 kts 77°
2026-04-22 16:18 52.59549 -9.25060 1272 ft 124 kts 77°
2026-04-22 16:18 52.59877 -9.23522 1270 ft 124 kts 79°
2026-04-22 16:18 52.60218 -9.22013 1330 ft 122 kts 79°
2026-04-22 16:18 52.60514 -9.20491 1292 ft 125 kts 81°
2026-04-22 16:19 52.60784 -9.18934 1286 ft 125 kts 81°
2026-04-22 16:19 52.61151 -9.17419 1367 ft 124 kts 73°
2026-04-22 16:19 52.61621 -9.15983 1344 ft 128 kts 69°
2026-04-22 16:19 52.62135 -9.14579 1344 ft 129 kts 69°
2026-04-22 16:20 52.62643 -9.13102 1294 ft 132 kts 71°
2026-04-22 16:20 52.63097 -9.11557 1248 ft 133 kts 73°
2026-04-22 16:20 52.63514 -9.10023 1266 ft 130 kts 74°
2026-04-22 16:20 52.63916 -9.08503 1281 ft 127 kts 77°
2026-04-22 16:21 52.64310 -9.06986 1266 ft 129 kts 75°
2026-04-22 16:21 52.64717 -9.05482 1285 ft 128 kts 73°
2026-04-22 16:21 52.65105 -9.03972 1264 ft 129 kts 76°
2026-04-22 16:21 52.65572 -9.02458 1188 ft 136 kts 66°
2026-04-22 16:22 52.66898 -8.99769 823 ft 124 kts 61°
2026-04-22 16:22 52.67391 -8.98692 780 ft 100 kts 64°
2026-04-22 16:22 52.67843 -8.97692 628 ft 97 kts 64°
2026-04-22 16:23 52.68663 -8.95778 368 ft 87 kts 62°
2026-04-22 16:23 52.69045 -8.94961 241 ft 87 kts 60°
2026-04-22 16:23 52.69443 -8.94100 50 ft 88 kts 59°
2026-04-22 16:24 52.69744 -8.93414 20 ft 56 kts 46°
2026-04-22 16:24 52.69850 -8.92846 10 ft 12 kts 131°
2026-04-22 16:24 52.69770 -8.92723 10 ft 16 kts 134°
2026-04-22 16:25 52.69669 -8.92568 10 ft 20 kts 137°
2026-04-22 16:25 52.69488 -8.92192 10 ft 19 kts 109°
2026-04-22 16:25 52.69455 -8.91974 10 ft 18 kts 103°
2026-04-22 16:26 52.69390 -8.91769 7 ft 19 kts 155°
2026-04-22 16:26 52.69291 -8.91666 6 ft 16 kts 124°
2026-04-22 16:26 52.69200 -8.91510 6 ft 18 kts 134°
2026-04-22 16:26 52.69134 -8.91338 6 ft 14 kts 82°
2026-04-22 16:27 52.69172 -8.91153 6 ft 16 kts 67°
2026-04-22 16:27 52.69162 -8.91050 4 ft 9 kts 182°
2026-04-22 16:27 52.69147 -8.91014 3 ft 0 kts 16°